sensor_id;sensor_type;location;lat;lon;timestamp;P1;durP1;ratioP1;P2;durP2;ratioP2
16179;SDS011;8196;49.428;10.906;2022-11-25T00:01:18;14.63;;;8.77;;
16179;SDS011;8196;49.428;10.906;2022-11-25T00:03:45;16.02;;;8.80;;
16179;SDS011;8196;49.428;10.906;2022-11-25T00:06:15;15.02;;;7.93;;
16179;SDS011;8196;49.428;10.906;2022-11-25T00:08:42;13.90;;;9.20;;
16179;SDS011;8196;49.428;10.906;2022-11-25T00:11:10;11.85;;;8.18;;
16179;SDS011;8196;49.428;10.906;2022-11-25T00:13:38;12.77;;;7.80;;
16179;SDS011;8196;49.428;10.906;2022-11-25T00:16:06;10.43;;;7.32;;
16179;SDS011;8196;49.428;10.906;2022-11-25T00:18:34;9.68;;;6.85;;
16179;SDS011;8196;49.428;10.906;2022-11-25T00:21:09;12.32;;;7.55;;
16179;SDS011;8196;49.428;10.906;2022-11-25T00:23:36;15.95;;;8.90;;
16179;SDS011;8196;49.428;10.906;2022-11-25T00:26:08;12.27;;;9.23;;
16179;SDS011;8196;49.428;10.906;2022-11-25T00:28:35;12.38;;;9.30;;
16179;SDS011;8196;49.428;10.906;2022-11-25T00:31:03;13.00;;;8.02;;
16179;SDS011;8196;49.428;10.906;2022-11-25T00:33:30;10.93;;;7.68;;
16179;SDS011;8196;49.428;10.906;2022-11-25T00:35:59;10.52;;;7.38;;
16179;SDS011;8196;49.428;10.906;2022-11-25T00:38:26;10.50;;;7.07;;
16179;SDS011;8196;49.428;10.906;2022-11-25T00:40:53;11.27;;;8.43;;
16179;SDS011;8196;49.428;10.906;2022-11-25T00:43:43;12.35;;;8.70;;
16179;SDS011;8196;49.428;10.906;2022-11-25T00:46:30;12.05;;;8.02;;
16179;SDS011;8196;49.428;10.906;2022-11-25T00:48:57;11.48;;;8.07;;
16179;SDS011;8196;49.428;10.906;2022-11-25T00:51:24;12.88;;;8.32;;
16179;SDS011;8196;49.428;10.906;2022-11-25T00:53:51;9.88;;;6.70;;
16179;SDS011;8196;49.428;10.906;2022-11-25T00:56:24;8.25;;;6.40;;
16179;SDS011;8196;49.428;10.906;2022-11-25T00:58:51;8.52;;;6.05;;
16179;SDS011;8196;49.428;10.906;2022-11-25T01:01:19;7.22;;;5.95;;
16179;SDS011;8196;49.428;10.906;2022-11-25T01:03:48;7.10;;;6.05;;
16179;SDS011;8196;49.428;10.906;2022-11-25T01:06:15;10.13;;;6.93;;
16179;SDS011;8196;49.428;10.906;2022-11-25T01:08:42;8.55;;;6.68;;
16179;SDS011;8196;49.428;10.906;2022-11-25T01:11:10;10.15;;;7.47;;
16179;SDS011;8196;49.428;10.906;2022-11-25T01:13:37;8.35;;;6.13;;
16179;SDS011;8196;49.428;10.906;2022-11-25T01:16:05;8.63;;;7.20;;
16179;SDS011;8196;49.428;10.906;2022-11-25T01:18:33;9.98;;;7.25;;
16179;SDS011;8196;49.428;10.906;2022-11-25T01:21:05;11.30;;;7.50;;
16179;SDS011;8196;49.428;10.906;2022-11-25T01:23:33;9.00;;;6.57;;
16179;SDS011;8196;49.428;10.906;2022-11-25T01:26:01;10.93;;;6.97;;
16179;SDS011;8196;49.428;10.906;2022-11-25T01:28:28;8.38;;;6.35;;
16179;SDS011;8196;49.428;10.906;2022-11-25T01:30:59;8.88;;;6.38;;
16179;SDS011;8196;49.428;10.906;2022-11-25T01:33:27;8.65;;;6.47;;
16179;SDS011;8196;49.428;10.906;2022-11-25T01:35:54;10.35;;;6.53;;
16179;SDS011;8196;49.428;10.906;2022-11-25T01:38:21;8.80;;;6.45;;
16179;SDS011;8196;49.428;10.906;2022-11-25T01:40:48;9.02;;;6.18;;
16179;SDS011;8196;49.428;10.906;2022-11-25T01:43:15;9.43;;;6.18;;
16179;SDS011;8196;49.428;10.906;2022-11-25T01:45:42;9.35;;;6.45;;
16179;SDS011;8196;49.428;10.906;2022-11-25T01:48:17;11.40;;;6.68;;
16179;SDS011;8196;49.428;10.906;2022-11-25T01:50:46;11.95;;;7.28;;
16179;SDS011;8196;49.428;10.906;2022-11-25T01:53:14;13.88;;;7.65;;
16179;SDS011;8196;49.428;10.906;2022-11-25T01:55:43;10.00;;;6.97;;
16179;SDS011;8196;49.428;10.906;2022-11-25T01:58:15;12.05;;;8.40;;
16179;SDS011;8196;49.428;10.906;2022-11-25T02:00:42;13.73;;;8.00;;
16179;SDS011;8196;49.428;10.906;2022-11-25T02:03:18;15.32;;;8.52;;
16179;SDS011;8196;49.428;10.906;2022-11-25T02:05:49;10.80;;;6.80;;
16179;SDS011;8196;49.428;10.906;2022-11-25T02:08:18;11.65;;;7.10;;
16179;SDS011;8196;49.428;10.906;2022-11-25T02:10:45;13.70;;;8.00;;
16179;SDS011;8196;49.428;10.906;2022-11-25T02:13:13;10.80;;;6.90;;
16179;SDS011;8196;49.428;10.906;2022-11-25T02:15:40;11.48;;;7.38;;
16179;SDS011;8196;49.428;10.906;2022-11-25T02:18:07;11.63;;;6.95;;
16179;SDS011;8196;49.428;10.906;2022-11-25T02:20:34;10.80;;;6.47;;
16179;SDS011;8196;49.428;10.906;2022-11-25T02:25:37;12.05;;;7.28;;
16179;SDS011;8196;49.428;10.906;2022-11-25T02:28:06;9.80;;;6.40;;
16179;SDS011;8196;49.428;10.906;2022-11-25T02:33:01;10.55;;;6.28;;
16179;SDS011;8196;49.428;10.906;2022-11-25T02:35:30;10.88;;;6.70;;
16179;SDS011;8196;49.428;10.906;2022-11-25T02:37:59;11.90;;;6.77;;
16179;SDS011;8196;49.428;10.906;2022-11-25T02:40:29;11.55;;;6.80;;
16179;SDS011;8196;49.428;10.906;2022-11-25T02:42:57;10.32;;;6.93;;
16179;SDS011;8196;49.428;10.906;2022-11-25T02:45:29;14.95;;;8.73;;
16179;SDS011;8196;49.428;10.906;2022-11-25T02:47:58;18.83;;;9.20;;
16179;SDS011;8196;49.428;10.906;2022-11-25T02:50:25;13.82;;;7.90;;
16179;SDS011;8196;49.428;10.906;2022-11-25T02:52:52;13.35;;;7.85;;
16179;SDS011;8196;49.428;10.906;2022-11-25T02:55:20;9.90;;;7.10;;
16179;SDS011;8196;49.428;10.906;2022-11-25T02:57:47;14.00;;;7.20;;
16179;SDS011;8196;49.428;10.906;2022-11-25T03:00:14;15.80;;;8.23;;
16179;SDS011;8196;49.428;10.906;2022-11-25T03:02:41;9.43;;;6.43;;
16179;SDS011;8196;49.428;10.906;2022-11-25T03:05:08;11.43;;;7.30;;
16179;SDS011;8196;49.428;10.906;2022-11-25T03:07:36;9.82;;;6.57;;
16179;SDS011;8196;49.428;10.906;2022-11-25T03:10:03;9.93;;;6.53;;
16179;SDS011;8196;49.428;10.906;2022-11-25T03:12:30;8.02;;;5.65;;
16179;SDS011;8196;49.428;10.906;2022-11-25T03:14:57;10.60;;;6.50;;
16179;SDS011;8196;49.428;10.906;2022-11-25T03:17:24;8.70;;;5.75;;
16179;SDS011;8196;49.428;10.906;2022-11-25T03:19:51;9.68;;;6.13;;
16179;SDS011;8196;49.428;10.906;2022-11-25T03:22:19;8.55;;;5.88;;
16179;SDS011;8196;49.428;10.906;2022-11-25T03:24:46;11.07;;;6.13;;
16179;SDS011;8196;49.428;10.906;2022-11-25T03:27:13;8.18;;;5.40;;
16179;SDS011;8196;49.428;10.906;2022-11-25T03:29:40;9.98;;;6.05;;
16179;SDS011;8196;49.428;10.906;2022-11-25T03:32:07;11.98;;;6.57;;
16179;SDS011;8196;49.428;10.906;2022-11-25T03:34:35;10.10;;;6.47;;
16179;SDS011;8196;49.428;10.906;2022-11-25T03:37:02;10.00;;;6.15;;
16179;SDS011;8196;49.428;10.906;2022-11-25T03:39:29;11.52;;;6.85;;
16179;SDS011;8196;49.428;10.906;2022-11-25T03:41:57;15.20;;;8.30;;
16179;SDS011;8196;49.428;10.906;2022-11-25T03:44:24;13.18;;;7.43;;
16179;SDS011;8196;49.428;10.906;2022-11-25T03:46:51;11.60;;;6.10;;
16179;SDS011;8196;49.428;10.906;2022-11-25T03:49:18;9.95;;;6.18;;
16179;SDS011;8196;49.428;10.906;2022-11-25T03:51:47;9.75;;;6.32;;
16179;SDS011;8196;49.428;10.906;2022-11-25T03:54:14;10.57;;;6.60;;
16179;SDS011;8196;49.428;10.906;2022-11-25T03:56:41;9.48;;;6.18;;
16179;SDS011;8196;49.428;10.906;2022-11-25T03:59:08;9.23;;;6.30;;
16179;SDS011;8196;49.428;10.906;2022-11-25T04:01:35;9.50;;;6.45;;
16179;SDS011;8196;49.428;10.906;2022-11-25T04:04:09;14.48;;;7.22;;
16179;SDS011;8196;49.428;10.906;2022-11-25T04:06:36;12.38;;;7.28;;
16179;SDS011;8196;49.428;10.906;2022-11-25T04:09:05;16.35;;;6.63;;
16179;SDS011;8196;49.428;10.906;2022-11-25T04:11:32;8.65;;;5.90;;
16179;SDS011;8196;49.428;10.906;2022-11-25T04:14:19;9.25;;;5.85;;
16179;SDS011;8196;49.428;10.906;2022-11-25T04:16:46;9.48;;;6.15;;
16179;SDS011;8196;49.428;10.906;2022-11-25T04:19:13;8.75;;;6.05;;
16179;SDS011;8196;49.428;10.906;2022-11-25T04:21:40;7.32;;;5.55;;
16179;SDS011;8196;49.428;10.906;2022-11-25T04:24:10;8.25;;;5.88;;
16179;SDS011;8196;49.428;10.906;2022-11-25T04:26:37;18.70;;;14.50;;
16179;SDS011;8196;49.428;10.906;2022-11-25T04:29:04;12.87;;;9.87;;
16179;SDS011;8196;49.428;10.906;2022-11-25T04:31:30;13.68;;;8.13;;
16179;SDS011;8196;49.428;10.906;2022-11-25T04:33:57;11.43;;;7.03;;
16179;SDS011;8196;49.428;10.906;2022-11-25T04:36:25;6.88;;;5.50;;
16179;SDS011;8196;49.428;10.906;2022-11-25T04:38:52;10.73;;;6.30;;
16179;SDS011;8196;49.428;10.906;2022-11-25T04:41:19;6.75;;;5.40;;
16179;SDS011;8196;49.428;10.906;2022-11-25T04:43:46;7.30;;;5.55;;
16179;SDS011;8196;49.428;10.906;2022-11-25T04:46:15;6.00;;;5.10;;
16179;SDS011;8196;49.428;10.906;2022-11-25T04:48:43;7.20;;;5.00;;
16179;SDS011;8196;49.428;10.906;2022-11-25T04:51:10;6.85;;;5.32;;
16179;SDS011;8196;49.428;10.906;2022-11-25T04:53:37;11.10;;;6.20;;
16179;SDS011;8196;49.428;10.906;2022-11-25T04:56:04;10.93;;;6.40;;
16179;SDS011;8196;49.428;10.906;2022-11-25T04:58:32;9.43;;;6.50;;
16179;SDS011;8196;49.428;10.906;2022-11-25T05:01:19;9.48;;;6.20;;
16179;SDS011;8196;49.428;10.906;2022-11-25T05:03:47;9.55;;;6.10;;
16179;SDS011;8196;49.428;10.906;2022-11-25T05:06:22;8.48;;;6.10;;
16179;SDS011;8196;49.428;10.906;2022-11-25T05:08:49;8.85;;;5.93;;
16179;SDS011;8196;49.428;10.906;2022-11-25T05:11:16;9.43;;;6.33;;
16179;SDS011;8196;49.428;10.906;2022-11-25T05:13:43;12.43;;;6.63;;
16179;SDS011;8196;49.428;10.906;2022-11-25T05:16:10;10.48;;;7.07;;
16179;SDS011;8196;49.428;10.906;2022-11-25T05:18:38;10.07;;;7.13;;
16179;SDS011;8196;49.428;10.906;2022-11-25T05:21:05;13.73;;;7.70;;
16179;SDS011;8196;49.428;10.906;2022-11-25T05:23:32;11.23;;;7.15;;
16179;SDS011;8196;49.428;10.906;2022-11-25T05:25:59;11.93;;;7.30;;
16179;SDS011;8196;49.428;10.906;2022-11-25T05:28:27;10.40;;;7.40;;
16179;SDS011;8196;49.428;10.906;2022-11-25T05:30:54;10.50;;;7.55;;
16179;SDS011;8196;49.428;10.906;2022-11-25T05:33:22;10.80;;;7.13;;
16179;SDS011;8196;49.428;10.906;2022-11-25T05:35:53;9.95;;;7.07;;
16179;SDS011;8196;49.428;10.906;2022-11-25T05:38:20;10.82;;;7.60;;
16179;SDS011;8196;49.428;10.906;2022-11-25T05:40:47;11.55;;;7.50;;
16179;SDS011;8196;49.428;10.906;2022-11-25T05:43:14;9.00;;;6.78;;
16179;SDS011;8196;49.428;10.906;2022-11-25T05:45:41;9.90;;;7.18;;
16179;SDS011;8196;49.428;10.906;2022-11-25T05:48:08;10.20;;;7.10;;
16179;SDS011;8196;49.428;10.906;2022-11-25T05:50:36;11.27;;;7.30;;
16179;SDS011;8196;49.428;10.906;2022-11-25T05:53:04;10.15;;;7.22;;
16179;SDS011;8196;49.428;10.906;2022-11-25T05:55:31;9.57;;;7.30;;
16179;SDS011;8196;49.428;10.906;2022-11-25T05:57:58;11.40;;;7.90;;
16179;SDS011;8196;49.428;10.906;2022-11-25T06:00:25;9.80;;;7.25;;
16179;SDS011;8196;49.428;10.906;2022-11-25T06:02:53;13.10;;;9.30;;
16179;SDS011;8196;49.428;10.906;2022-11-25T06:05:20;20.40;;;12.90;;
16179;SDS011;8196;49.428;10.906;2022-11-25T06:07:47;15.52;;;10.68;;
16179;SDS011;8196;49.428;10.906;2022-11-25T06:10:16;16.48;;;10.90;;
16179;SDS011;8196;49.428;10.906;2022-11-25T06:12:43;18.98;;;11.27;;
16179;SDS011;8196;49.428;10.906;2022-11-25T06:15:10;16.67;;;10.98;;
16179;SDS011;8196;49.428;10.906;2022-11-25T06:17:37;14.13;;;10.13;;
16179;SDS011;8196;49.428;10.906;2022-11-25T06:20:05;19.83;;;11.38;;
16179;SDS011;8196;49.428;10.906;2022-11-25T06:22:33;18.38;;;13.35;;
16179;SDS011;8196;49.428;10.906;2022-11-25T06:25:00;19.98;;;14.80;;
16179;SDS011;8196;49.428;10.906;2022-11-25T06:27:29;17.52;;;12.18;;
16179;SDS011;8196;49.428;10.906;2022-11-25T06:30:17;17.83;;;12.10;;
16179;SDS011;8196;49.428;10.906;2022-11-25T06:32:44;15.40;;;9.83;;
16179;SDS011;8196;49.428;10.906;2022-11-25T06:35:11;13.05;;;8.43;;
16179;SDS011;8196;49.428;10.906;2022-11-25T06:37:39;10.45;;;8.10;;
16179;SDS011;8196;49.428;10.906;2022-11-25T06:40:06;10.60;;;8.20;;
16179;SDS011;8196;49.428;10.906;2022-11-25T06:42:34;12.10;;;7.90;;
16179;SDS011;8196;49.428;10.906;2022-11-25T06:45:03;11.48;;;7.95;;
16179;SDS011;8196;49.428;10.906;2022-11-25T06:47:30;24.38;;;14.32;;
16179;SDS011;8196;49.428;10.906;2022-11-25T06:49:58;39.70;;;21.27;;
16179;SDS011;8196;49.428;10.906;2022-11-25T06:52:25;33.80;;;18.50;;
16179;SDS011;8196;49.428;10.906;2022-11-25T06:54:52;32.45;;;18.83;;
16179;SDS011;8196;49.428;10.906;2022-11-25T06:57:19;32.35;;;19.50;;
16179;SDS011;8196;49.428;10.906;2022-11-25T06:59:46;68.65;;;39.05;;
16179;SDS011;8196;49.428;10.906;2022-11-25T07:02:13;35.78;;;22.52;;
16179;SDS011;8196;49.428;10.906;2022-11-25T07:04:40;24.17;;;15.77;;
16179;SDS011;8196;49.428;10.906;2022-11-25T07:07:07;18.05;;;13.23;;
16179;SDS011;8196;49.428;10.906;2022-11-25T07:09:35;23.15;;;15.32;;
16179;SDS011;8196;49.428;10.906;2022-11-25T07:12:03;20.63;;;14.30;;
16179;SDS011;8196;49.428;10.906;2022-11-25T07:14:30;15.07;;;11.57;;
16179;SDS011;8196;49.428;10.906;2022-11-25T07:16:57;14.05;;;10.25;;
16179;SDS011;8196;49.428;10.906;2022-11-25T07:19:24;15.35;;;10.32;;
16179;SDS011;8196;49.428;10.906;2022-11-25T07:21:52;14.57;;;10.82;;
16179;SDS011;8196;49.428;10.906;2022-11-25T07:24:19;13.45;;;9.65;;
16179;SDS011;8196;49.428;10.906;2022-11-25T07:26:46;10.90;;;7.95;;
16179;SDS011;8196;49.428;10.906;2022-11-25T07:29:14;9.32;;;7.50;;
16179;SDS011;8196;49.428;10.906;2022-11-25T07:32:01;11.32;;;8.75;;
16179;SDS011;8196;49.428;10.906;2022-11-25T07:34:35;11.20;;;8.55;;
16179;SDS011;8196;49.428;10.906;2022-11-25T07:37:02;11.52;;;9.00;;
16179;SDS011;8196;49.428;10.906;2022-11-25T07:39:29;14.05;;;8.85;;
16179;SDS011;8196;49.428;10.906;2022-11-25T07:41:56;11.27;;;8.57;;
16179;SDS011;8196;49.428;10.906;2022-11-25T07:44:23;16.63;;;12.13;;
16179;SDS011;8196;49.428;10.906;2022-11-25T07:46:50;12.32;;;9.50;;
16179;SDS011;8196;49.428;10.906;2022-11-25T07:49:19;11.40;;;9.18;;
16179;SDS011;8196;49.428;10.906;2022-11-25T07:54:13;15.73;;;12.10;;
16179;SDS011;8196;49.428;10.906;2022-11-25T07:56:41;19.75;;;15.38;;
16179;SDS011;8196;49.428;10.906;2022-11-25T07:59:13;18.42;;;13.77;;
16179;SDS011;8196;49.428;10.906;2022-11-25T08:01:41;18.35;;;13.50;;
16179;SDS011;8196;49.428;10.906;2022-11-25T08:04:08;16.00;;;11.55;;
16179;SDS011;8196;49.428;10.906;2022-11-25T08:06:44;14.52;;;10.63;;
16179;SDS011;8196;49.428;10.906;2022-11-25T08:09:13;12.80;;;9.40;;
16179;SDS011;8196;49.428;10.906;2022-11-25T08:11:40;12.85;;;9.35;;
16179;SDS011;8196;49.428;10.906;2022-11-25T08:14:08;13.87;;;10.07;;
16179;SDS011;8196;49.428;10.906;2022-11-25T08:16:35;15.05;;;11.45;;
16179;SDS011;8196;49.428;10.906;2022-11-25T08:19:03;15.00;;;11.63;;
16179;SDS011;8196;49.428;10.906;2022-11-25T08:21:31;14.13;;;11.20;;
16179;SDS011;8196;49.428;10.906;2022-11-25T08:23:58;17.10;;;13.43;;
16179;SDS011;8196;49.428;10.906;2022-11-25T08:26:29;18.95;;;14.07;;
16179;SDS011;8196;49.428;10.906;2022-11-25T08:28:56;18.67;;;14.52;;
16179;SDS011;8196;49.428;10.906;2022-11-25T08:31:25;13.83;;;11.33;;
16179;SDS011;8196;49.428;10.906;2022-11-25T08:33:53;16.65;;;11.27;;
16179;SDS011;8196;49.428;10.906;2022-11-25T08:36:21;14.60;;;11.10;;
16179;SDS011;8196;49.428;10.906;2022-11-25T08:38:49;15.45;;;11.77;;
16179;SDS011;8196;49.428;10.906;2022-11-25T08:41:18;17.17;;;13.40;;
16179;SDS011;8196;49.428;10.906;2022-11-25T08:43:45;18.80;;;14.68;;
16179;SDS011;8196;49.428;10.906;2022-11-25T08:46:13;17.80;;;13.98;;
16179;SDS011;8196;49.428;10.906;2022-11-25T08:51:09;14.40;;;11.52;;
16179;SDS011;8196;49.428;10.906;2022-11-25T08:53:36;13.80;;;10.57;;
16179;SDS011;8196;49.428;10.906;2022-11-25T08:56:04;13.68;;;11.38;;
16179;SDS011;8196;49.428;10.906;2022-11-25T08:58:31;14.38;;;10.85;;
16179;SDS011;8196;49.428;10.906;2022-11-25T09:00:59;14.75;;;11.07;;
16179;SDS011;8196;49.428;10.906;2022-11-25T09:03:26;15.77;;;12.27;;
16179;SDS011;8196;49.428;10.906;2022-11-25T09:05:53;15.35;;;12.27;;
16179;SDS011;8196;49.428;10.906;2022-11-25T09:08:21;14.85;;;11.38;;
16179;SDS011;8196;49.428;10.906;2022-11-25T09:10:48;13.57;;;11.07;;
16179;SDS011;8196;49.428;10.906;2022-11-25T09:13:16;12.65;;;10.25;;
16179;SDS011;8196;49.428;10.906;2022-11-25T09:15:44;11.70;;;9.65;;
16179;SDS011;8196;49.428;10.906;2022-11-25T09:18:11;9.73;;;8.50;;
16179;SDS011;8196;49.428;10.906;2022-11-25T09:20:39;8.95;;;7.85;;
16179;SDS011;8196;49.428;10.906;2022-11-25T09:23:07;9.63;;;8.13;;
16179;SDS011;8196;49.428;10.906;2022-11-25T09:25:34;9.80;;;8.35;;
16179;SDS011;8196;49.428;10.906;2022-11-25T09:28:02;9.10;;;7.60;;
16179;SDS011;8196;49.428;10.906;2022-11-25T09:30:29;8.83;;;7.93;;
16179;SDS011;8196;49.428;10.906;2022-11-25T09:32:58;8.88;;;7.97;;
16179;SDS011;8196;49.428;10.906;2022-11-25T09:35:25;9.10;;;8.20;;
16179;SDS011;8196;49.428;10.906;2022-11-25T09:37:52;9.77;;;8.77;;
16179;SDS011;8196;49.428;10.906;2022-11-25T09:40:26;12.15;;;9.90;;
16179;SDS011;8196;49.428;10.906;2022-11-25T09:45:46;8.50;;;7.60;;
16179;SDS011;8196;49.428;10.906;2022-11-25T09:51:29;9.43;;;8.50;;
16179;SDS011;8196;49.428;10.906;2022-11-25T09:54:04;9.18;;;8.23;;
16179;SDS011;8196;49.428;10.906;2022-11-25T09:56:40;7.65;;;6.95;;
16179;SDS011;8196;49.428;10.906;2022-11-25T10:01:43;7.40;;;6.70;;
16179;SDS011;8196;49.428;10.906;2022-11-25T10:04:12;7.47;;;6.50;;
16179;SDS011;8196;49.428;10.906;2022-11-25T10:06:45;6.22;;;5.63;;
16179;SDS011;8196;49.428;10.906;2022-11-25T10:09:21;6.27;;;5.67;;
16179;SDS011;8196;49.428;10.906;2022-11-25T10:11:51;6.72;;;6.03;;
16179;SDS011;8196;49.428;10.906;2022-11-25T10:14:28;5.80;;;5.20;;
16179;SDS011;8196;49.428;10.906;2022-11-25T10:16:57;6.47;;;5.88;;
16179;SDS011;8196;49.428;10.906;2022-11-25T10:22:30;6.30;;;5.68;;
16179;SDS011;8196;49.428;10.906;2022-11-25T10:24:59;5.40;;;4.80;;
16179;SDS011;8196;49.428;10.906;2022-11-25T10:27:30;5.15;;;4.57;;
16179;SDS011;8196;49.428;10.906;2022-11-25T10:30:05;4.88;;;4.35;;
16179;SDS011;8196;49.428;10.906;2022-11-25T10:32:36;4.40;;;4.00;;
16179;SDS011;8196;49.428;10.906;2022-11-25T10:35:10;5.70;;;4.13;;
16179;SDS011;8196;49.428;10.906;2022-11-25T10:37:41;4.33;;;3.93;;
16179;SDS011;8196;49.428;10.906;2022-11-25T10:40:14;6.65;;;4.88;;
16179;SDS011;8196;49.428;10.906;2022-11-25T10:42:42;5.87;;;4.80;;
16179;SDS011;8196;49.428;10.906;2022-11-25T10:45:09;4.90;;;4.38;;
16179;SDS011;8196;49.428;10.906;2022-11-25T10:50:21;5.60;;;4.70;;
16179;SDS011;8196;49.428;10.906;2022-11-25T10:55:22;5.20;;;4.70;;
16179;SDS011;8196;49.428;10.906;2022-11-25T10:57:51;5.15;;;4.65;;
16179;SDS011;8196;49.428;10.906;2022-11-25T11:00:35;5.68;;;5.10;;
16179;SDS011;8196;49.428;10.906;2022-11-25T11:05:50;6.10;;;5.47;;
16179;SDS011;8196;49.428;10.906;2022-11-25T11:08:20;6.18;;;5.47;;
16179;SDS011;8196;49.428;10.906;2022-11-25T11:13:35;5.97;;;5.28;;
16179;SDS011;8196;49.428;10.906;2022-11-25T11:16:02;6.43;;;5.65;;
16179;SDS011;8196;49.428;10.906;2022-11-25T11:21:05;4.90;;;4.40;;
16179;SDS011;8196;49.428;10.906;2022-11-25T11:23:46;4.55;;;4.13;;
16179;SDS011;8196;49.428;10.906;2022-11-25T11:26:30;4.65;;;4.25;;
16179;SDS011;8196;49.428;10.906;2022-11-25T11:31:28;4.20;;;3.80;;
16179;SDS011;8196;49.428;10.906;2022-11-25T11:34:09;3.77;;;3.47;;
16179;SDS011;8196;49.428;10.906;2022-11-25T11:36:40;3.83;;;3.38;;
16179;SDS011;8196;49.428;10.906;2022-11-25T11:46:42;4.05;;;3.42;;
16179;SDS011;8196;49.428;10.906;2022-11-25T11:50:24;4.20;;;3.80;;
16179;SDS011;8196;49.428;10.906;2022-11-25T11:52:08;5.82;;;3.92;;
16179;SDS011;8196;49.428;10.906;2022-11-25T11:54:44;4.65;;;3.83;;
16179;SDS011;8196;49.428;10.906;2022-11-25T11:59:49;3.40;;;3.10;;
16179;SDS011;8196;49.428;10.906;2022-11-25T12:10:21;4.87;;;4.10;;
16179;SDS011;8196;49.428;10.906;2022-11-25T12:18:16;5.23;;;4.20;;
16179;SDS011;8196;49.428;10.906;2022-11-25T12:23:14;5.30;;;4.43;;
16179;SDS011;8196;49.428;10.906;2022-11-25T12:25:44;5.60;;;4.32;;
16179;SDS011;8196;49.428;10.906;2022-11-25T12:28:24;6.00;;;5.18;;
16179;SDS011;8196;49.428;10.906;2022-11-25T12:33:51;5.40;;;4.72;;
16179;SDS011;8196;49.428;10.906;2022-11-25T12:36:23;4.93;;;4.35;;
16179;SDS011;8196;49.428;10.906;2022-11-25T12:38:54;5.53;;;4.93;;
16179;SDS011;8196;49.428;10.906;2022-11-25T12:46:56;4.93;;;4.43;;
16179;SDS011;8196;49.428;10.906;2022-11-25T13:02:03;10.23;;;8.65;;
16179;SDS011;8196;49.428;10.906;2022-11-25T13:04:47;5.93;;;4.97;;
16179;SDS011;8196;49.428;10.906;2022-11-25T13:07:26;6.20;;;4.30;;
16179;SDS011;8196;49.428;10.906;2022-11-25T13:10:00;6.07;;;4.00;;
16179;SDS011;8196;49.428;10.906;2022-11-25T13:12:36;5.57;;;3.42;;
16179;SDS011;8196;49.428;10.906;2022-11-25T13:15:30;5.05;;;3.72;;
16179;SDS011;8196;49.428;10.906;2022-11-25T13:18:00;7.00;;;6.30;;
16179;SDS011;8196;49.428;10.906;2022-11-25T13:23:00;9.15;;;7.50;;
16179;SDS011;8196;49.428;10.906;2022-11-25T13:25:27;7.28;;;5.50;;
16179;SDS011;8196;49.428;10.906;2022-11-25T13:27:56;7.30;;;6.55;;
16179;SDS011;8196;49.428;10.906;2022-11-25T13:35:45;7.05;;;5.95;;
16179;SDS011;8196;49.428;10.906;2022-11-25T13:40:57;6.50;;;5.90;;
16179;SDS011;8196;49.428;10.906;2022-11-25T13:43:25;10.18;;;8.93;;
16179;SDS011;8196;49.428;10.906;2022-11-25T13:45:52;10.05;;;9.05;;
16179;SDS011;8196;49.428;10.906;2022-11-25T13:48:27;11.75;;;8.10;;
16179;SDS011;8196;49.428;10.906;2022-11-25T13:51:11;10.88;;;8.23;;
16179;SDS011;8196;49.428;10.906;2022-11-25T13:53:40;9.83;;;8.33;;
16179;SDS011;8196;49.428;10.906;2022-11-25T13:56:11;10.23;;;7.90;;
16179;SDS011;8196;49.428;10.906;2022-11-25T13:58:38;12.52;;;8.85;;
16179;SDS011;8196;49.428;10.906;2022-11-25T14:01:19;13.35;;;9.27;;
16179;SDS011;8196;49.428;10.906;2022-11-25T14:03:55;12.13;;;9.55;;
16179;SDS011;8196;49.428;10.906;2022-11-25T14:06:25;9.63;;;7.63;;
16179;SDS011;8196;49.428;10.906;2022-11-25T14:11:30;9.07;;;8.13;;
16179;SDS011;8196;49.428;10.906;2022-11-25T14:16:52;8.48;;;7.32;;
16179;SDS011;8196;49.428;10.906;2022-11-25T14:24:46;9.98;;;7.55;;
16179;SDS011;8196;49.428;10.906;2022-11-25T14:27:18;11.40;;;8.65;;
16179;SDS011;8196;49.428;10.906;2022-11-25T14:29:50;12.03;;;7.97;;
16179;SDS011;8196;49.428;10.906;2022-11-25T14:37:21;9.70;;;6.25;;
16179;SDS011;8196;49.428;10.906;2022-11-25T14:39:56;8.60;;;5.90;;
16179;SDS011;8196;49.428;10.906;2022-11-25T14:42:26;7.53;;;5.70;;
16179;SDS011;8196;49.428;10.906;2022-11-25T14:44:57;8.35;;;5.50;;
16179;SDS011;8196;49.428;10.906;2022-11-25T14:47:25;7.13;;;5.47;;
16179;SDS011;8196;49.428;10.906;2022-11-25T14:49:53;7.05;;;5.38;;
16179;SDS011;8196;49.428;10.906;2022-11-25T14:52:41;7.80;;;5.65;;
16179;SDS011;8196;49.428;10.906;2022-11-25T14:55:09;8.50;;;5.80;;
16179;SDS011;8196;49.428;10.906;2022-11-25T14:57:37;8.10;;;5.80;;
16179;SDS011;8196;49.428;10.906;2022-11-25T15:00:08;7.75;;;6.25;;
16179;SDS011;8196;49.428;10.906;2022-11-25T15:02:38;8.43;;;6.70;;
16179;SDS011;8196;49.428;10.906;2022-11-25T15:07:33;11.43;;;9.05;;
16179;SDS011;8196;49.428;10.906;2022-11-25T15:10:01;13.80;;;9.38;;
16179;SDS011;8196;49.428;10.906;2022-11-25T15:12:30;15.20;;;11.27;;
16179;SDS011;8196;49.428;10.906;2022-11-25T15:14:57;10.98;;;9.02;;
16179;SDS011;8196;49.428;10.906;2022-11-25T15:17:27;12.40;;;8.70;;
16179;SDS011;8196;49.428;10.906;2022-11-25T15:19:55;16.13;;;10.60;;
16179;SDS011;8196;49.428;10.906;2022-11-25T15:22:23;18.92;;;13.40;;
16179;SDS011;8196;49.428;10.906;2022-11-25T15:24:51;22.47;;;16.40;;
16179;SDS011;8196;49.428;10.906;2022-11-25T15:27:23;23.70;;;18.27;;
16179;SDS011;8196;49.428;10.906;2022-11-25T15:29:52;19.27;;;16.40;;
16179;SDS011;8196;49.428;10.906;2022-11-25T15:32:28;14.20;;;12.43;;
16179;SDS011;8196;49.428;10.906;2022-11-25T15:34:56;11.73;;;10.52;;
16179;SDS011;8196;49.428;10.906;2022-11-25T15:37:24;12.48;;;11.05;;
16179;SDS011;8196;49.428;10.906;2022-11-25T15:42:40;12.82;;;11.48;;
16179;SDS011;8196;49.428;10.906;2022-11-25T15:45:09;13.00;;;11.65;;
16179;SDS011;8196;49.428;10.906;2022-11-25T15:47:36;13.13;;;11.77;;
16179;SDS011;8196;49.428;10.906;2022-11-25T15:50:05;12.40;;;11.20;;
16179;SDS011;8196;49.428;10.906;2022-11-25T15:52:34;11.50;;;10.38;;
16179;SDS011;8196;49.428;10.906;2022-11-25T15:55:02;10.57;;;9.45;;
16179;SDS011;8196;49.428;10.906;2022-11-25T15:57:33;11.48;;;9.85;;
16179;SDS011;8196;49.428;10.906;2022-11-25T16:00:08;11.95;;;10.65;;
16179;SDS011;8196;49.428;10.906;2022-11-25T16:05:15;15.40;;;13.25;;
16179;SDS011;8196;49.428;10.906;2022-11-25T16:18:19;11.52;;;10.00;;
16179;SDS011;8196;49.428;10.906;2022-11-25T16:21:07;16.70;;;15.20;;
16179;SDS011;8196;49.428;10.906;2022-11-25T16:23:36;15.65;;;14.23;;
16179;SDS011;8196;49.428;10.906;2022-11-25T16:28:39;10.95;;;9.43;;
16179;SDS011;8196;49.428;10.906;2022-11-25T16:31:09;9.57;;;8.67;;
16179;SDS011;8196;49.428;10.906;2022-11-25T16:33:38;10.90;;;9.13;;
16179;SDS011;8196;49.428;10.906;2022-11-25T16:36:06;12.93;;;11.13;;
16179;SDS011;8196;49.428;10.906;2022-11-25T16:38:35;16.40;;;14.35;;
16179;SDS011;8196;49.428;10.906;2022-11-25T16:41:07;18.40;;;16.48;;
16179;SDS011;8196;49.428;10.906;2022-11-25T16:43:37;20.75;;;16.77;;
16179;SDS011;8196;49.428;10.906;2022-11-25T16:46:05;19.88;;;16.38;;
16179;SDS011;8196;49.428;10.906;2022-11-25T16:48:32;21.85;;;17.85;;
16179;SDS011;8196;49.428;10.906;2022-11-25T16:50:59;22.27;;;18.23;;
16179;SDS011;8196;49.428;10.906;2022-11-25T16:53:26;26.13;;;20.67;;
16179;SDS011;8196;49.428;10.906;2022-11-25T16:55:53;22.55;;;17.95;;
16179;SDS011;8196;49.428;10.906;2022-11-25T16:58:22;19.67;;;17.17;;
16179;SDS011;8196;49.428;10.906;2022-11-25T17:00:50;17.13;;;15.32;;